sensor_id;sensor_type;location;lat;lon;timestamp;temperature;humidity
46137;DHT22;31871;49.418;8.752;2022-08-21T00:02:27;19.60;99.90
46137;DHT22;31871;49.418;8.752;2022-08-21T00:04:53;19.50;99.90
46137;DHT22;31871;49.418;8.752;2022-08-21T00:07:20;19.40;99.90
46137;DHT22;31871;49.418;8.752;2022-08-21T00:09:46;19.30;99.90
46137;DHT22;31871;49.418;8.752;2022-08-21T00:12:12;19.30;99.90
46137;DHT22;31871;49.418;8.752;2022-08-21T00:14:38;19.40;99.90
46137;DHT22;31871;49.418;8.752;2022-08-21T00:17:04;19.40;99.90
46137;DHT22;31871;49.418;8.752;2022-08-21T00:19:31;19.50;99.90
46137;DHT22;31871;49.418;8.752;2022-08-21T00:21:57;19.50;99.90
46137;DHT22;31871;49.418;8.752;2022-08-21T00:24:23;19.50;99.90
46137;DHT22;31871;49.418;8.752;2022-08-21T00:26:49;19.50;99.90
46137;DHT22;31871;49.418;8.752;2022-08-21T00:29:15;19.40;99.90
46137;DHT22;31871;49.418;8.752;2022-08-21T00:31:42;19.30;99.90
46137;DHT22;31871;49.418;8.752;2022-08-21T00:34:08;19.20;99.90
46137;DHT22;31871;49.418;8.752;2022-08-21T00:36:35;19.10;99.90
46137;DHT22;31871;49.418;8.752;2022-08-21T00:39:00;19.10;99.90
46137;DHT22;31871;49.418;8.752;2022-08-21T00:41:27;19.10;99.90
46137;DHT22;31871;49.418;8.752;2022-08-21T00:43:53;19.10;99.90
46137;DHT22;31871;49.418;8.752;2022-08-21T00:46:19;19.00;99.90
46137;DHT22;31871;49.418;8.752;2022-08-21T00:48:45;18.90;99.90
46137;DHT22;31871;49.418;8.752;2022-08-21T00:51:17;18.90;99.90
46137;DHT22;31871;49.418;8.752;2022-08-21T00:53:49;18.80;99.90
46137;DHT22;31871;49.418;8.752;2022-08-21T00:56:18;18.80;99.90
46137;DHT22;31871;49.418;8.752;2022-08-21T00:58:45;18.70;99.90
46137;DHT22;31871;49.418;8.752;2022-08-21T01:01:11;18.80;99.90
46137;DHT22;31871;49.418;8.752;2022-08-21T01:03:37;18.70;99.90
46137;DHT22;31871;49.418;8.752;2022-08-21T01:06:04;18.70;99.90
46137;DHT22;31871;49.418;8.752;2022-08-21T01:08:30;18.60;99.90
46137;DHT22;31871;49.418;8.752;2022-08-21T01:10:57;18.50;99.90
46137;DHT22;31871;49.418;8.752;2022-08-21T01:13:24;18.50;99.90
46137;DHT22;31871;49.418;8.752;2022-08-21T01:15:52;18.50;99.90
46137;DHT22;31871;49.418;8.752;2022-08-21T01:18:19;18.50;99.90
46137;DHT22;31871;49.418;8.752;2022-08-21T01:21:00;18.40;99.90
46137;DHT22;31871;49.418;8.752;2022-08-21T01:23:26;18.40;99.90
46137;DHT22;31871;49.418;8.752;2022-08-21T01:25:52;18.40;99.90
46137;DHT22;31871;49.418;8.752;2022-08-21T01:28:17;18.30;99.90
46137;DHT22;31871;49.418;8.752;2022-08-21T01:30:44;18.40;99.90
46137;DHT22;31871;49.418;8.752;2022-08-21T01:33:10;18.30;99.90
46137;DHT22;31871;49.418;8.752;2022-08-21T01:35:36;18.40;99.90
46137;DHT22;31871;49.418;8.752;2022-08-21T01:38:02;18.30;99.90
46137;DHT22;31871;49.418;8.752;2022-08-21T01:40:28;18.40;99.90
46137;DHT22;31871;49.418;8.752;2022-08-21T01:42:54;18.30;99.90
46137;DHT22;31871;49.418;8.752;2022-08-21T01:45:19;18.30;99.90
46137;DHT22;31871;49.418;8.752;2022-08-21T01:47:45;18.20;99.90
46137;DHT22;31871;49.418;8.752;2022-08-21T01:50:14;18.20;99.90
46137;DHT22;31871;49.418;8.752;2022-08-21T01:52:40;18.20;99.90
46137;DHT22;31871;49.418;8.752;2022-08-21T01:55:07;18.30;99.90
46137;DHT22;31871;49.418;8.752;2022-08-21T01:57:33;18.40;99.90
46137;DHT22;31871;49.418;8.752;2022-08-21T01:59:59;18.40;99.90
46137;DHT22;31871;49.418;8.752;2022-08-21T02:02:25;18.40;99.90
46137;DHT22;31871;49.418;8.752;2022-08-21T02:04:50;18.30;99.90
46137;DHT22;31871;49.418;8.752;2022-08-21T02:07:16;18.30;99.90
46137;DHT22;31871;49.418;8.752;2022-08-21T02:09:42;18.30;99.90
46137;DHT22;31871;49.418;8.752;2022-08-21T02:12:09;18.20;99.90
46137;DHT22;31871;49.418;8.752;2022-08-21T02:14:35;18.10;99.90
46137;DHT22;31871;49.418;8.752;2022-08-21T02:17:00;18.10;99.90
46137;DHT22;31871;49.418;8.752;2022-08-21T02:19:26;18.10;99.90
46137;DHT22;31871;49.418;8.752;2022-08-21T02:21:52;18.20;99.90
46137;DHT22;31871;49.418;8.752;2022-08-21T02:24:17;18.20;99.90
46137;DHT22;31871;49.418;8.752;2022-08-21T02:26:43;18.30;99.90
46137;DHT22;31871;49.418;8.752;2022-08-21T02:29:09;18.20;99.90
46137;DHT22;31871;49.418;8.752;2022-08-21T02:31:34;18.00;99.90
46137;DHT22;31871;49.418;8.752;2022-08-21T02:34:00;17.90;99.90
46137;DHT22;31871;49.418;8.752;2022-08-21T02:36:26;17.80;99.90
46137;DHT22;31871;49.418;8.752;2022-08-21T02:38:52;17.80;99.90
46137;DHT22;31871;49.418;8.752;2022-08-21T02:41:20;17.80;99.90
46137;DHT22;31871;49.418;8.752;2022-08-21T02:43:46;17.70;99.90
46137;DHT22;31871;49.418;8.752;2022-08-21T02:46:13;17.60;99.90
46137;DHT22;31871;49.418;8.752;2022-08-21T02:48:39;17.60;99.90
46137;DHT22;31871;49.418;8.752;2022-08-21T02:51:09;17.60;99.90
46137;DHT22;31871;49.418;8.752;2022-08-21T02:53:36;17.50;99.90
46137;DHT22;31871;49.418;8.752;2022-08-21T02:56:05;17.50;99.90
46137;DHT22;31871;49.418;8.752;2022-08-21T02:58:38;17.50;99.90
46137;DHT22;31871;49.418;8.752;2022-08-21T03:01:04;17.50;99.90
46137;DHT22;31871;49.418;8.752;2022-08-21T03:03:35;17.60;99.90
46137;DHT22;31871;49.418;8.752;2022-08-21T03:06:02;17.60;99.90
46137;DHT22;31871;49.418;8.752;2022-08-21T03:08:28;17.60;99.90
46137;DHT22;31871;49.418;8.752;2022-08-21T03:10:54;17.60;99.90
46137;DHT22;31871;49.418;8.752;2022-08-21T03:13:20;17.50;99.90
46137;DHT22;31871;49.418;8.752;2022-08-21T03:15:48;17.40;99.90
46137;DHT22;31871;49.418;8.752;2022-08-21T03:18:14;17.30;99.90
46137;DHT22;31871;49.418;8.752;2022-08-21T03:20:41;17.30;99.90
46137;DHT22;31871;49.418;8.752;2022-08-21T03:23:07;17.20;99.90
46137;DHT22;31871;49.418;8.752;2022-08-21T03:25:34;17.10;99.90
46137;DHT22;31871;49.418;8.752;2022-08-21T03:28:01;17.10;99.90
46137;DHT22;31871;49.418;8.752;2022-08-21T03:30:27;17.10;99.90
46137;DHT22;31871;49.418;8.752;2022-08-21T03:32:52;17.20;99.90
46137;DHT22;31871;49.418;8.752;2022-08-21T03:35:19;17.20;99.90
46137;DHT22;31871;49.418;8.752;2022-08-21T03:37:45;17.20;99.90
46137;DHT22;31871;49.418;8.752;2022-08-21T03:40:13;17.10;99.90
46137;DHT22;31871;49.418;8.752;2022-08-21T03:42:40;17.00;99.90
46137;DHT22;31871;49.418;8.752;2022-08-21T03:45:06;16.90;99.90
46137;DHT22;31871;49.418;8.752;2022-08-21T03:47:32;16.90;99.90
46137;DHT22;31871;49.418;8.752;2022-08-21T03:49:57;16.90;99.90
46137;DHT22;31871;49.418;8.752;2022-08-21T03:52:23;16.80;99.90
46137;DHT22;31871;49.418;8.752;2022-08-21T03:54:49;16.90;99.90
46137;DHT22;31871;49.418;8.752;2022-08-21T03:57:15;16.90;99.90
46137;DHT22;31871;49.418;8.752;2022-08-21T03:59:41;16.80;99.90
46137;DHT22;31871;49.418;8.752;2022-08-21T04:02:08;16.80;99.90
46137;DHT22;31871;49.418;8.752;2022-08-21T04:04:34;16.70;99.90
46137;DHT22;31871;49.418;8.752;2022-08-21T04:07:00;16.70;99.90
46137;DHT22;31871;49.418;8.752;2022-08-21T04:09:26;16.70;99.90
46137;DHT22;31871;49.418;8.752;2022-08-21T04:11:52;16.60;99.90
46137;DHT22;31871;49.418;8.752;2022-08-21T04:14:18;16.60;99.90
46137;DHT22;31871;49.418;8.752;2022-08-21T04:16:44;16.60;99.90
46137;DHT22;31871;49.418;8.752;2022-08-21T04:19:10;16.60;99.90
46137;DHT22;31871;49.418;8.752;2022-08-21T04:21:37;16.50;99.90
46137;DHT22;31871;49.418;8.752;2022-08-21T04:24:03;16.50;99.90
46137;DHT22;31871;49.418;8.752;2022-08-21T04:26:29;16.50;99.90
46137;DHT22;31871;49.418;8.752;2022-08-21T04:28:56;16.40;99.90
46137;DHT22;31871;49.418;8.752;2022-08-21T04:31:23;16.40;99.90
46137;DHT22;31871;49.418;8.752;2022-08-21T04:33:50;16.40;99.90
46137;DHT22;31871;49.418;8.752;2022-08-21T04:36:16;16.40;99.90
46137;DHT22;31871;49.418;8.752;2022-08-21T04:38:42;16.40;99.90
46137;DHT22;31871;49.418;8.752;2022-08-21T04:41:08;16.40;99.90
46137;DHT22;31871;49.418;8.752;2022-08-21T04:43:33;16.30;99.90
46137;DHT22;31871;49.418;8.752;2022-08-21T04:45:59;16.30;99.90
46137;DHT22;31871;49.418;8.752;2022-08-21T04:48:26;16.30;99.90
46137;DHT22;31871;49.418;8.752;2022-08-21T04:50:55;16.30;99.90
46137;DHT22;31871;49.418;8.752;2022-08-21T04:53:35;16.20;99.90
46137;DHT22;31871;49.418;8.752;2022-08-21T04:56:19;16.20;99.90
46137;DHT22;31871;49.418;8.752;2022-08-21T04:58:45;16.20;99.90
46137;DHT22;31871;49.418;8.752;2022-08-21T05:01:15;16.20;99.90
46137;DHT22;31871;49.418;8.752;2022-08-21T05:03:42;16.20;99.90
46137;DHT22;31871;49.418;8.752;2022-08-21T05:06:10;16.10;99.90
46137;DHT22;31871;49.418;8.752;2022-08-21T05:08:38;16.10;99.90
46137;DHT22;31871;49.418;8.752;2022-08-21T05:11:05;16.10;99.90
46137;DHT22;31871;49.418;8.752;2022-08-21T05:13:31;16.10;99.90
46137;DHT22;31871;49.418;8.752;2022-08-21T05:15:57;16.00;99.90
46137;DHT22;31871;49.418;8.752;2022-08-21T05:18:24;16.00;99.90
46137;DHT22;31871;49.418;8.752;2022-08-21T05:20:49;16.00;99.90
46137;DHT22;31871;49.418;8.752;2022-08-21T05:23:16;15.90;99.90
46137;DHT22;31871;49.418;8.752;2022-08-21T05:25:41;15.80;99.90
46137;DHT22;31871;49.418;8.752;2022-08-21T05:28:09;15.80;99.90
46137;DHT22;31871;49.418;8.752;2022-08-21T05:30:35;15.90;99.90
46137;DHT22;31871;49.418;8.752;2022-08-21T05:33:03;15.80;99.90
46137;DHT22;31871;49.418;8.752;2022-08-21T05:35:29;15.90;99.90
46137;DHT22;31871;49.418;8.752;2022-08-21T05:37:54;15.90;99.90
46137;DHT22;31871;49.418;8.752;2022-08-21T05:40:21;16.00;99.90
46137;DHT22;31871;49.418;8.752;2022-08-21T05:42:46;16.00;99.90
46137;DHT22;31871;49.418;8.752;2022-08-21T05:45:12;16.00;99.90
46137;DHT22;31871;49.418;8.752;2022-08-21T05:47:38;16.00;99.90
46137;DHT22;31871;49.418;8.752;2022-08-21T05:50:05;16.10;99.90
46137;DHT22;31871;49.418;8.752;2022-08-21T05:52:30;16.10;99.90
46137;DHT22;31871;49.418;8.752;2022-08-21T05:54:56;16.20;99.90
46137;DHT22;31871;49.418;8.752;2022-08-21T05:57:22;16.20;99.90
46137;DHT22;31871;49.418;8.752;2022-08-21T05:59:49;16.20;99.90
46137;DHT22;31871;49.418;8.752;2022-08-21T06:02:17;16.20;99.90
46137;DHT22;31871;49.418;8.752;2022-08-21T06:04:43;16.20;99.90
46137;DHT22;31871;49.418;8.752;2022-08-21T06:07:08;16.20;99.90
46137;DHT22;31871;49.418;8.752;2022-08-21T06:09:34;16.30;99.90
46137;DHT22;31871;49.418;8.752;2022-08-21T06:12:07;16.30;99.90
46137;DHT22;31871;49.418;8.752;2022-08-21T06:14:33;16.40;99.90
46137;DHT22;31871;49.418;8.752;2022-08-21T06:17:08;16.50;99.90
46137;DHT22;31871;49.418;8.752;2022-08-21T06:19:34;16.50;99.90
46137;DHT22;31871;49.418;8.752;2022-08-21T06:21:59;16.60;99.90
46137;DHT22;31871;49.418;8.752;2022-08-21T06:24:25;16.60;99.90
46137;DHT22;31871;49.418;8.752;2022-08-21T06:26:51;16.60;99.90
46137;DHT22;31871;49.418;8.752;2022-08-21T06:29:17;16.60;99.90
46137;DHT22;31871;49.418;8.752;2022-08-21T06:31:45;16.60;99.90
46137;DHT22;31871;49.418;8.752;2022-08-21T06:34:10;16.70;99.90
46137;DHT22;31871;49.418;8.752;2022-08-21T06:36:36;16.80;99.90
46137;DHT22;31871;49.418;8.752;2022-08-21T06:39:03;16.90;99.90
46137;DHT22;31871;49.418;8.752;2022-08-21T06:41:28;16.90;99.90
46137;DHT22;31871;49.418;8.752;2022-08-21T06:43:54;17.00;99.90
46137;DHT22;31871;49.418;8.752;2022-08-21T06:46:20;17.00;99.90
46137;DHT22;31871;49.418;8.752;2022-08-21T06:48:46;17.10;99.90
46137;DHT22;31871;49.418;8.752;2022-08-21T06:51:12;17.20;99.90
46137;DHT22;31871;49.418;8.752;2022-08-21T06:53:37;17.30;99.90
46137;DHT22;31871;49.418;8.752;2022-08-21T06:56:03;17.40;99.90
46137;DHT22;31871;49.418;8.752;2022-08-21T06:58:29;17.40;99.90
46137;DHT22;31871;49.418;8.752;2022-08-21T07:00:55;17.50;99.90
46137;DHT22;31871;49.418;8.752;2022-08-21T07:03:30;17.50;99.90
46137;DHT22;31871;49.418;8.752;2022-08-21T07:05:56;17.60;99.90
46137;DHT22;31871;49.418;8.752;2022-08-21T07:08:25;17.80;99.90
46137;DHT22;31871;49.418;8.752;2022-08-21T07:10:52;17.80;99.90
46137;DHT22;31871;49.418;8.752;2022-08-21T07:13:18;17.90;99.90
46137;DHT22;31871;49.418;8.752;2022-08-21T07:15:44;18.00;99.90
46137;DHT22;31871;49.418;8.752;2022-08-21T07:18:11;18.10;99.90
46137;DHT22;31871;49.418;8.752;2022-08-21T07:20:37;18.20;99.90
46137;DHT22;31871;49.418;8.752;2022-08-21T07:23:06;18.30;99.90
46137;DHT22;31871;49.418;8.752;2022-08-21T07:25:32;18.40;99.90
46137;DHT22;31871;49.418;8.752;2022-08-21T07:27:58;18.50;99.90
46137;DHT22;31871;49.418;8.752;2022-08-21T07:30:24;18.60;99.90
46137;DHT22;31871;49.418;8.752;2022-08-21T07:32:50;18.80;99.90
46137;DHT22;31871;49.418;8.752;2022-08-21T07:35:17;18.80;99.90
46137;DHT22;31871;49.418;8.752;2022-08-21T07:37:44;18.90;99.90
46137;DHT22;31871;49.418;8.752;2022-08-21T07:40:10;19.10;99.90
46137;DHT22;31871;49.418;8.752;2022-08-21T07:42:40;19.20;99.90
46137;DHT22;31871;49.418;8.752;2022-08-21T07:45:07;19.40;99.90
46137;DHT22;31871;49.418;8.752;2022-08-21T07:47:32;19.50;99.90
46137;DHT22;31871;49.418;8.752;2022-08-21T07:49:58;19.60;99.90
46137;DHT22;31871;49.418;8.752;2022-08-21T07:52:23;19.80;99.90
46137;DHT22;31871;49.418;8.752;2022-08-21T07:54:49;19.90;99.90
46137;DHT22;31871;49.418;8.752;2022-08-21T07:57:15;19.90;99.90
46137;DHT22;31871;49.418;8.752;2022-08-21T07:59:41;20.00;99.90
46137;DHT22;31871;49.418;8.752;2022-08-21T08:02:06;20.00;99.90
46137;DHT22;31871;49.418;8.752;2022-08-21T08:04:32;20.10;99.90
46137;DHT22;31871;49.418;8.752;2022-08-21T08:06:57;20.30;99.90
46137;DHT22;31871;49.418;8.752;2022-08-21T08:09:23;20.40;99.90
46137;DHT22;31871;49.418;8.752;2022-08-21T08:11:49;20.50;99.90
46137;DHT22;31871;49.418;8.752;2022-08-21T08:14:14;20.60;99.90
46137;DHT22;31871;49.418;8.752;2022-08-21T08:16:41;20.70;99.90
46137;DHT22;31871;49.418;8.752;2022-08-21T08:19:06;20.70;99.90
46137;DHT22;31871;49.418;8.752;2022-08-21T08:21:32;20.80;99.90
46137;DHT22;31871;49.418;8.752;2022-08-21T08:23:59;20.90;99.90
46137;DHT22;31871;49.418;8.752;2022-08-21T08:26:25;21.00;99.90
46137;DHT22;31871;49.418;8.752;2022-08-21T08:28:50;21.00;99.90
46137;DHT22;31871;49.418;8.752;2022-08-21T08:31:16;21.10;99.90
46137;DHT22;31871;49.418;8.752;2022-08-21T08:33:42;21.30;99.90
46137;DHT22;31871;49.418;8.752;2022-08-21T08:36:14;21.60;99.90
46137;DHT22;31871;49.418;8.752;2022-08-21T08:38:40;22.00;99.90
46137;DHT22;31871;49.418;8.752;2022-08-21T08:41:14;22.40;99.90
46137;DHT22;31871;49.418;8.752;2022-08-21T08:43:44;22.60;99.90
46137;DHT22;31871;49.418;8.752;2022-08-21T08:46:16;22.70;99.90
46137;DHT22;31871;49.418;8.752;2022-08-21T08:48:51;22.90;99.90
46137;DHT22;31871;49.418;8.752;2022-08-21T08:54:10;23.00;99.10
46137;DHT22;31871;49.418;8.752;2022-08-21T08:56:37;23.00;98.70
46137;DHT22;31871;49.418;8.752;2022-08-21T08:59:15;23.20;98.60
46137;DHT22;31871;49.418;8.752;2022-08-21T09:01:42;23.20;98.20
46137;DHT22;31871;49.418;8.752;2022-08-21T09:04:10;23.40;98.10
46137;DHT22;31871;49.418;8.752;2022-08-21T09:12:15;23.80;97.10
46137;DHT22;31871;49.418;8.752;2022-08-21T09:17:17;24.10;96.50
46137;DHT22;31871;49.418;8.752;2022-08-21T09:25:31;24.90;93.40
46137;DHT22;31871;49.418;8.752;2022-08-21T09:27:58;25.10;93.00
46137;DHT22;31871;49.418;8.752;2022-08-21T09:30:28;24.90;93.10
46137;DHT22;31871;49.418;8.752;2022-08-21T09:32:54;24.60;93.00
46137;DHT22;31871;49.418;8.752;2022-08-21T09:35:21;24.50;92.50
46137;DHT22;31871;49.418;8.752;2022-08-21T09:40:44;24.10;91.90
46137;DHT22;31871;49.418;8.752;2022-08-21T09:45:43;24.10;90.50
46137;DHT22;31871;49.418;8.752;2022-08-21T09:48:23;24.00;90.70
46137;DHT22;31871;49.418;8.752;2022-08-21T09:50:50;24.10;90.10
46137;DHT22;31871;49.418;8.752;2022-08-21T09:53:22;24.40;88.50
46137;DHT22;31871;49.418;8.752;2022-08-21T09:56:05;24.30;87.20
46137;DHT22;31871;49.418;8.752;2022-08-21T09:58:59;24.20;85.70
46137;DHT22;31871;49.418;8.752;2022-08-21T10:01:26;24.70;85.00
46137;DHT22;31871;49.418;8.752;2022-08-21T10:04:08;25.00;83.60
46137;DHT22;31871;49.418;8.752;2022-08-21T10:06:33;25.00;84.20
46137;DHT22;31871;49.418;8.752;2022-08-21T10:09:12;25.40;81.20
46137;DHT22;31871;49.418;8.752;2022-08-21T10:11:39;25.40;80.30
46137;DHT22;31871;49.418;8.752;2022-08-21T10:14:18;25.70;77.90
46137;DHT22;31871;49.418;8.752;2022-08-21T10:19:37;26.20;74.30
46137;DHT22;31871;49.418;8.752;2022-08-21T10:27:55;26.00;71.50
46137;DHT22;31871;49.418;8.752;2022-08-21T10:30:46;25.90;72.20
46137;DHT22;31871;49.418;8.752;2022-08-21T10:36:18;26.40;70.10
46137;DHT22;31871;49.418;8.752;2022-08-21T10:47:35;26.20;71.40
46137;DHT22;31871;49.418;8.752;2022-08-21T10:52:54;25.60;71.10
46137;DHT22;31871;49.418;8.752;2022-08-21T10:55:27;25.20;71.00
46137;DHT22;31871;49.418;8.752;2022-08-21T10:58:01;25.20;70.90
46137;DHT22;31871;49.418;8.752;2022-08-21T11:03:13;25.70;70.70
46137;DHT22;31871;49.418;8.752;2022-08-21T11:05:50;25.90;69.10
46137;DHT22;31871;49.418;8.752;2022-08-21T11:08:24;26.10;69.20
46137;DHT22;31871;49.418;8.752;2022-08-21T11:11:22;26.40;68.70
46137;DHT22;31871;49.418;8.752;2022-08-21T11:13:54;26.60;66.80
46137;DHT22;31871;49.418;8.752;2022-08-21T11:19:13;27.00;64.60
46137;DHT22;31871;49.418;8.752;2022-08-21T11:22:25;26.90;64.30
46137;DHT22;31871;49.418;8.752;2022-08-21T11:25:10;26.60;65.10
46137;DHT22;31871;49.418;8.752;2022-08-21T11:27:40;26.70;63.80
46137;DHT22;31871;49.418;8.752;2022-08-21T11:30:07;26.70;61.60
46137;DHT22;31871;49.418;8.752;2022-08-21T11:46:03;26.30;64.90
46137;DHT22;31871;49.418;8.752;2022-08-21T11:51:51;26.50;61.30
46137;DHT22;31871;49.418;8.752;2022-08-21T11:57:03;26.70;60.70
46137;DHT22;31871;49.418;8.752;2022-08-21T11:59:49;27.10;59.70
46137;DHT22;31871;49.418;8.752;2022-08-21T12:02:21;27.20;59.60
46137;DHT22;31871;49.418;8.752;2022-08-21T12:04:55;27.10;60.10
46137;DHT22;31871;49.418;8.752;2022-08-21T12:09:57;27.40;58.70
46137;DHT22;31871;49.418;8.752;2022-08-21T12:12:38;27.70;58.40
46137;DHT22;31871;49.418;8.752;2022-08-21T12:20:39;28.30;55.50
46137;DHT22;31871;49.418;8.752;2022-08-21T12:25:39;27.90;51.00
46137;DHT22;31871;49.418;8.752;2022-08-21T12:28:15;28.00;52.30
46137;DHT22;31871;49.418;8.752;2022-08-21T12:30:44;27.90;55.20
46137;DHT22;31871;49.418;8.752;2022-08-21T12:33:32;27.90;52.10
46137;DHT22;31871;49.418;8.752;2022-08-21T12:36:14;28.50;50.20
46137;DHT22;31871;49.418;8.752;2022-08-21T12:38:52;28.90;49.40
46137;DHT22;31871;49.418;8.752;2022-08-21T12:41:22;28.80;48.90
46137;DHT22;31871;49.418;8.752;2022-08-21T12:44:04;28.60;48.20
46137;DHT22;31871;49.418;8.752;2022-08-21T12:46:58;28.50;50.10
46137;DHT22;31871;49.418;8.752;2022-08-21T12:49:33;28.20;51.70
46137;DHT22;31871;49.418;8.752;2022-08-21T12:54:53;28.40;49.60
46137;DHT22;31871;49.418;8.752;2022-08-21T12:57:21;28.10;53.40
46137;DHT22;31871;49.418;8.752;2022-08-21T12:59:56;28.00;51.50
46137;DHT22;31871;49.418;8.752;2022-08-21T13:02:43;28.40;50.50
46137;DHT22;31871;49.418;8.752;2022-08-21T13:05:15;28.40;50.70
46137;DHT22;31871;49.418;8.752;2022-08-21T13:07:46;27.80;51.30
46137;DHT22;31871;49.418;8.752;2022-08-21T13:10:24;27.60;51.40
46137;DHT22;31871;49.418;8.752;2022-08-21T13:12:55;27.80;50.80
46137;DHT22;31871;49.418;8.752;2022-08-21T13:15:41;28.10;50.60
46137;DHT22;31871;49.418;8.752;2022-08-21T13:18:07;28.00;47.80
46137;DHT22;31871;49.418;8.752;2022-08-21T13:20:37;28.10;47.90
46137;DHT22;31871;49.418;8.752;2022-08-21T13:23:08;28.20;51.90
46137;DHT22;31871;49.418;8.752;2022-08-21T13:25:41;28.40;49.80
46137;DHT22;31871;49.418;8.752;2022-08-21T13:28:09;28.40;49.80
46137;DHT22;31871;49.418;8.752;2022-08-21T13:30:43;28.50;49.60
46137;DHT22;31871;49.418;8.752;2022-08-21T13:33:10;28.50;49.70
46137;DHT22;31871;49.418;8.752;2022-08-21T13:38:16;28.40;48.80
46137;DHT22;31871;49.418;8.752;2022-08-21T13:40:51;28.30;47.90
46137;DHT22;31871;49.418;8.752;2022-08-21T13:43:20;28.60;47.60
46137;DHT22;31871;49.418;8.752;2022-08-21T13:45:53;28.60;47.50
46137;DHT22;31871;49.418;8.752;2022-08-21T13:48:20;28.40;48.80
46137;DHT22;31871;49.418;8.752;2022-08-21T13:50:47;28.20;50.10
46137;DHT22;31871;49.418;8.752;2022-08-21T13:53:44;27.90;51.00
46137;DHT22;31871;49.418;8.752;2022-08-21T13:58:47;27.80;51.20
46137;DHT22;31871;49.418;8.752;2022-08-21T14:01:38;27.80;51.40
46137;DHT22;31871;49.418;8.752;2022-08-21T14:04:18;27.70;52.00
46137;DHT22;31871;49.418;8.752;2022-08-21T14:06:45;27.50;53.80
46137;DHT22;31871;49.418;8.752;2022-08-21T14:09:30;27.60;51.10
46137;DHT22;31871;49.418;8.752;2022-08-21T14:11:57;27.50;50.10
46137;DHT22;31871;49.418;8.752;2022-08-21T14:14:33;27.50;50.00
46137;DHT22;31871;49.418;8.752;2022-08-21T14:17:03;27.60;49.50
46137;DHT22;31871;49.418;8.752;2022-08-21T14:27:29;27.90;49.90
46137;DHT22;31871;49.418;8.752;2022-08-21T14:30:18;27.80;50.30
46137;DHT22;31871;49.418;8.752;2022-08-21T14:32:45;27.70;50.20
46137;DHT22;31871;49.418;8.752;2022-08-21T14:35:10;27.50;50.10
46137;DHT22;31871;49.418;8.752;2022-08-21T14:37:37;27.60;51.20
46137;DHT22;31871;49.418;8.752;2022-08-21T14:40:04;27.80;51.20
46137;DHT22;31871;49.418;8.752;2022-08-21T14:42:30;28.10;49.60
46137;DHT22;31871;49.418;8.752;2022-08-21T14:45:00;28.10;49.90
46137;DHT22;31871;49.418;8.752;2022-08-21T14:47:26;28.00;50.30
46137;DHT22;31871;49.418;8.752;2022-08-21T14:49:51;28.00;50.70
46137;DHT22;31871;49.418;8.752;2022-08-21T14:52:19;27.90;50.90
46137;DHT22;31871;49.418;8.752;2022-08-21T14:54:45;27.70;50.80
46137;DHT22;31871;49.418;8.752;2022-08-21T14:57:11;27.90;50.80
46137;DHT22;31871;49.418;8.752;2022-08-21T14:59:38;28.20;51.00
46137;DHT22;31871;49.418;8.752;2022-08-21T15:02:04;28.20;51.20
46137;DHT22;31871;49.418;8.752;2022-08-21T15:04:30;28.20;51.40
46137;DHT22;31871;49.418;8.752;2022-08-21T15:06:56;27.90;51.50
46137;DHT22;31871;49.418;8.752;2022-08-21T15:09:21;27.90;51.50
46137;DHT22;31871;49.418;8.752;2022-08-21T15:11:47;27.90;51.80
46137;DHT22;31871;49.418;8.752;2022-08-21T15:14:25;28.00;50.80
46137;DHT22;31871;49.418;8.752;2022-08-21T15:16:51;27.80;51.10
46137;DHT22;31871;49.418;8.752;2022-08-21T15:19:17;27.70;52.00
46137;DHT22;31871;49.418;8.752;2022-08-21T15:21:42;27.60;51.80
46137;DHT22;31871;49.418;8.752;2022-08-21T15:24:08;27.70;51.20
46137;DHT22;31871;49.418;8.752;2022-08-21T15:26:35;27.60;51.10
46137;DHT22;31871;49.418;8.752;2022-08-21T15:29:01;27.80;50.90
46137;DHT22;31871;49.418;8.752;2022-08-21T15:31:27;27.90;51.00
46137;DHT22;31871;49.418;8.752;2022-08-21T15:33:53;27.80;51.00
46137;DHT22;31871;49.418;8.752;2022-08-21T15:36:19;27.50;51.40
46137;DHT22;31871;49.418;8.752;2022-08-21T15:38:45;27.40;51.40
46137;DHT22;31871;49.418;8.752;2022-08-21T15:41:11;27.60;51.50
46137;DHT22;31871;49.418;8.752;2022-08-21T15:43:46;27.80;51.10
46137;DHT22;31871;49.418;8.752;2022-08-21T15:46:14;27.90;50.80
46137;DHT22;31871;49.418;8.752;2022-08-21T15:48:41;28.00;51.20
46137;DHT22;31871;49.418;8.752;2022-08-21T15:51:06;28.20;50.80
46137;DHT22;31871;49.418;8.752;2022-08-21T15:53:32;28.40;50.90
46137;DHT22;31871;49.418;8.752;2022-08-21T15:56:02;28.50;50.60
46137;DHT22;31871;49.418;8.752;2022-08-21T15:58:28;28.60;50.80
46137;DHT22;31871;49.418;8.752;2022-08-21T16:00:54;28.50;51.60
46137;DHT22;31871;49.418;8.752;2022-08-21T16:03:19;28.50;53.70
46137;DHT22;31871;49.418;8.752;2022-08-21T16:05:47;28.40;51.10
46137;DHT22;31871;49.418;8.752;2022-08-21T16:08:14;28.20;51.00
46137;DHT22;31871;49.418;8.752;2022-08-21T16:10:40;28.00;51.40
46137;DHT22;31871;49.418;8.752;2022-08-21T16:13:11;27.90;50.60
46137;DHT22;31871;49.418;8.752;2022-08-21T16:15:39;27.80;51.90
46137;DHT22;31871;49.418;8.752;2022-08-21T16:18:05;28.00;50.40
46137;DHT22;31871;49.418;8.752;2022-08-21T16:20:30;28.00;51.30
46137;DHT22;31871;49.418;8.752;2022-08-21T16:22:56;27.90;50.70
46137;DHT22;31871;49.418;8.752;2022-08-21T16:25:23;27.90;51.80
46137;DHT22;31871;49.418;8.752;2022-08-21T16:27:52;27.80;52.40
46137;DHT22;31871;49.418;8.752;2022-08-21T16:30:19;27.70;50.30
46137;DHT22;31871;49.418;8.752;2022-08-21T16:32:45;27.70;51.30
46137;DHT22;31871;49.418;8.752;2022-08-21T16:35:15;27.60;50.90
46137;DHT22;31871;49.418;8.752;2022-08-21T16:37:41;27.60;52.40
46137;DHT22;31871;49.418;8.752;2022-08-21T16:40:07;27.60;52.10
46137;DHT22;31871;49.418;8.752;2022-08-21T16:42:36;27.60;52.70
46137;DHT22;31871;49.418;8.752;2022-08-21T16:45:05;27.70;52.20
46137;DHT22;31871;49.418;8.752;2022-08-21T16:47:31;27.80;50.80
46137;DHT22;31871;49.418;8.752;2022-08-21T16:49:57;27.90;49.60
46137;DHT22;31871;49.418;8.752;2022-08-21T16:52:23;28.00;50.10
46137;DHT22;31871;49.418;8.752;2022-08-21T16:54:49;28.20;51.00
46137;DHT22;31871;49.418;8.752;2022-08-21T16:57:14;28.60;51.00
46137;DHT22;31871;49.418;8.752;2022-08-21T16:59:40;28.90;51.90
46137;DHT22;31871;49.418;8.752;2022-08-21T17:02:32;28.50;51.60
46137;DHT22;31871;49.418;8.752;2022-08-21T17:04:59;27.90;53.30
46137;DHT22;31871;49.418;8.752;2022-08-21T17:07:27;27.50;53.40
46137;DHT22;31871;49.418;8.752;2022-08-21T17:09:53;27.40;54.90
46137;DHT22;31871;49.418;8.752;2022-08-21T17:12:19;27.50;55.20
46137;DHT22;31871;49.418;8.752;2022-08-21T17:14:46;27.50;55.60
46137;DHT22;31871;49.418;8.752;2022-08-21T17:17:13;27.50;54.10